Aviation Digital Data Service (ADDS)

Output produced by METARs form (0320 UTC 25 May 2015)
found at http://aviationweather.gov/adds/metars/
 
KLFT 250253Z 00000KT 10SM OVC110 22/21 A3000 RMK AO2 SLP157 60006 T02170211 53006